createdAt,value
2024-03-06T00:03:26.875Z,101372.09
2024-03-06T00:08:30.028Z,101497.69
2024-03-06T00:13:32.887Z,101500.78
2024-03-06T00:18:37.009Z,101500.16
2024-03-06T00:23:40.204Z,101482.91
2024-03-06T00:28:42.924Z,101504.50
2024-03-06T00:33:47.031Z,101513.31
2024-03-06T00:38:49.854Z,101480.53
2024-03-06T00:43:52.766Z,101511.69
2024-03-06T00:48:56.799Z,101487.09
2024-03-06T00:53:59.814Z,101508.78
2024-03-06T00:59:02.509Z,101466.97
2024-03-06T01:04:07.259Z,101539.94
2024-03-06T01:09:10.355Z,101542.59
2024-03-06T01:14:18.091Z,101536.78
2024-03-06T01:19:22.810Z,101519.84
2024-03-06T01:24:25.885Z,101531.94
2024-03-06T01:29:28.531Z,101556.41
2024-03-06T01:34:32.640Z,101557.56
2024-03-06T01:39:37.789Z,101525.81
2024-03-06T01:44:40.542Z,101562.34
2024-03-06T01:49:45.649Z,101494.22
2024-03-06T01:54:52.217Z,101578.28
2024-03-06T01:59:55.737Z,101568.84
2024-03-06T02:10:18.110Z,101526.31
2024-03-06T02:15:21.228Z,101557.06
2024-03-06T02:20:26.267Z,101567.69
2024-03-06T02:25:29.452Z,101571.50
2024-03-06T02:30:37.834Z,101578.75
2024-03-06T02:35:46.538Z,101580.81
2024-03-06T02:40:51.217Z,101569.72
2024-03-06T02:45:54.308Z,101569.78
2024-03-06T02:50:58.974Z,101522.09
2024-03-06T02:56:01.692Z,101531.94
2024-03-06T03:01:04.521Z,101554.13
2024-03-06T03:06:08.948Z,101546.41
2024-03-06T03:11:12.761Z,101578.38
2024-03-06T03:16:19.723Z,101537.91
2024-03-06T03:21:23.955Z,101585.94
2024-03-06T03:26:26.596Z,101457.69
2024-03-06T03:31:29.284Z,101591.78
2024-03-06T03:36:34.206Z,101585.88
2024-03-06T03:41:36.930Z,101585.13
2024-03-06T03:46:40.009Z,101588.59
2024-03-06T03:51:44.261Z,101595.94
2024-03-06T03:56:47.121Z,101572.31
2024-03-06T04:01:49.864Z,101595.09
2024-03-06T04:06:56.034Z,101611.09
2024-03-06T04:11:59.621Z,101613.16
2024-03-06T04:17:03.818Z,101619.19
2024-03-06T04:22:10.452Z,101517.72
2024-03-06T04:27:13.071Z,101621.94
2024-03-06T04:32:15.767Z,101632.78
2024-03-06T04:37:20.247Z,101641.53
2024-03-06T04:42:22.893Z,101633.25
2024-03-06T04:47:29.355Z,101657.03
2024-03-06T04:52:34.735Z,101653.28
2024-03-06T04:57:41.700Z,101649.84
2024-03-06T06:01:39.905Z,101745.00
2024-03-06T06:06:45.459Z,101757.22
2024-03-06T06:11:51.614Z,101728.59
2024-03-06T06:16:54.469Z,101768.84
2024-03-06T06:21:57.355Z,101732.13
2024-03-06T06:27:01.377Z,101756.25
2024-03-06T06:32:04.056Z,101784.22
2024-03-06T06:37:06.819Z,101781.97
2024-03-06T06:42:12.379Z,101725.19
2024-03-06T06:47:15.429Z,101794.09
2024-03-06T06:52:21.893Z,101796.94
2024-03-06T06:57:26.070Z,101812.25
2024-03-06T07:02:29.067Z,101816.84
2024-03-06T07:07:31.869Z,101791.63
2024-03-06T07:12:37.099Z,101750.44
2024-03-06T07:17:39.859Z,101824.22
2024-03-06T07:22:45.647Z,101839.66
2024-03-06T07:27:49.691Z,101843.25
2024-03-06T07:32:54.853Z,101835.34
2024-03-06T07:37:58.012Z,101830.13
2024-03-06T07:43:02.081Z,101864.00
2024-03-06T07:48:05.913Z,101813.66
2024-03-06T07:53:08.636Z,101804.25
2024-03-06T07:58:14.090Z,101838.94
2024-03-06T08:03:17.072Z,101878.06
2024-03-06T08:08:19.925Z,101879.28
2024-03-06T08:13:25.586Z,101862.94
2024-03-06T08:18:28.375Z,101847.72
2024-03-06T08:23:31.590Z,101904.25
2024-03-06T08:28:35.735Z,101906.16
2024-03-06T08:33:38.754Z,101907.53
2024-03-06T08:38:42.897Z,101915.88
2024-03-06T08:43:47.002Z,101924.09
2024-03-06T08:48:52.541Z,101891.81
2024-03-06T08:53:59.521Z,101918.84
2024-03-06T08:59:04.693Z,101900.91
2024-03-06T09:04:08.416Z,101937.53
2024-03-06T09:09:14.566Z,101949.16
2024-03-06T09:14:18.988Z,101955.16
2024-03-06T09:19:21.718Z,101944.31
2024-03-06T09:24:26.059Z,101901.88
2024-03-06T09:29:30.261Z,101961.50
2024-03-06T09:34:32.940Z,101920.75
2024-03-06T09:39:37.380Z,101967.16
2024-03-06T09:44:42.773Z,101970.19
2024-03-06T09:49:45.913Z,101969.78
2024-03-06T09:54:49.641Z,101979.47
2024-03-06T09:59:53.891Z,101983.78
2024-03-06T10:04:56.631Z,101984.75
2024-03-06T10:16:57.126Z,101996.38
2024-03-06T10:22:00.008Z,101981.13
2024-03-06T10:27:03.169Z,102009.66
2024-03-06T10:32:08.978Z,102007.53
2024-03-06T10:37:12.039Z,101976.97
2024-03-06T10:42:15.505Z,102008.66
2024-03-06T10:47:22.271Z,102013.16
2024-03-06T10:52:25.514Z,102005.69
2024-03-06T10:57:29.617Z,102014.50
2024-03-06T11:02:34.380Z,102014.59
2024-03-06T11:07:38.057Z,101971.56
2024-03-06T11:12:41.269Z,102026.34
2024-03-06T11:17:46.052Z,102020.81
2024-03-06T11:23:12.665Z,101914.34
2024-03-06T11:28:19.450Z,102027.53
2024-03-06T11:33:24.154Z,101851.84
2024-03-06T11:38:27.620Z,102015.13
2024-03-06T11:43:31.348Z,102032.91
2024-03-06T11:48:35.592Z,102025.59
2024-03-06T11:53:42.645Z,102021.19
2024-03-06T11:58:48.669Z,102024.78
2024-03-06T12:03:54.138Z,102021.47
2024-03-06T12:08:57.466Z,102034.44
2024-03-06T12:14:00.198Z,102033.06
2024-03-06T12:19:04.340Z,102025.19
2024-03-06T12:24:08.407Z,102032.72
2024-03-06T12:29:12.842Z,102023.66
2024-03-06T12:34:18.138Z,101984.94
2024-03-06T12:39:24.153Z,102041.13
2024-03-06T12:44:27.809Z,102034.94
2024-03-06T12:49:31.966Z,101990.44
2024-03-06T12:54:39.628Z,101995.34
2024-03-06T12:59:44.061Z,102037.44
2024-03-06T13:04:48.199Z,102026.09
2024-03-06T13:09:51.713Z,102026.75
2024-03-06T13:14:55.047Z,102022.25
2024-03-06T13:19:59.317Z,102027.19
2024-03-06T13:25:05.873Z,102022.88
2024-03-06T13:30:10.010Z,102028.13
2024-03-06T13:35:14.550Z,102033.75
2024-03-06T13:40:17.765Z,102007.91
2024-03-06T13:45:23.286Z,102010.75
2024-03-06T13:50:29.445Z,102032.97
2024-03-06T13:55:34.504Z,102005.78
2024-03-06T14:00:37.351Z,102040.00
2024-03-06T14:05:42.108Z,102034.28
2024-03-06T14:10:46.962Z,101978.75
2024-03-06T14:15:50.476Z,102051.09
2024-03-06T14:20:54.667Z,101993.63
2024-03-06T14:25:57.462Z,102013.97
2024-03-06T14:31:01.520Z,102045.63
2024-03-06T14:36:09.040Z,102049.06
2024-03-06T14:41:11.954Z,101959.88
2024-03-06T14:46:16.953Z,102047.63
2024-03-06T14:51:21.372Z,102014.41
2024-03-06T14:56:24.205Z,101994.56
2024-03-06T15:01:29.771Z,102024.25
2024-03-06T15:06:34.403Z,102034.47
2024-03-06T15:11:37.281Z,101800.06
2024-03-06T15:16:41.009Z,102037.88
2024-03-06T15:21:46.380Z,102028.09
2024-03-06T15:26:49.276Z,102056.91
2024-03-06T15:31:52.129Z,102016.38
2024-03-06T15:36:57.821Z,102046.78
2024-03-06T15:42:04.350Z,102038.16
2024-03-06T15:47:10.864Z,102051.97
2024-03-06T15:52:16.291Z,102012.47
2024-03-06T15:57:19.699Z,102057.00
2024-03-06T16:02:24.858Z,102059.63
2024-03-06T16:07:29.233Z,102023.22
2024-03-06T16:12:32.122Z,102024.66
2024-03-06T16:17:35.777Z,101979.13
2024-03-06T16:22:40.077Z,102002.94
2024-03-06T16:27:42.726Z,102061.13
2024-03-06T16:32:45.507Z,102055.22
2024-03-06T16:37:51.800Z,102065.69
2024-03-06T16:42:54.995Z,102079.44
2024-03-06T16:48:01.014Z,102096.69
2024-03-06T16:53:09.209Z,102065.44
2024-03-06T16:58:12.958Z,102087.72
2024-03-06T17:03:15.821Z,102089.84
2024-03-06T17:08:19.999Z,102113.59
2024-03-06T17:13:22.956Z,102112.38
2024-03-06T17:18:25.736Z,102110.16
2024-03-06T17:23:30.329Z,102119.91
2024-03-06T17:28:33.087Z,102095.31
2024-03-06T17:33:39.215Z,102109.34
2024-03-06T17:38:47.621Z,102119.50
2024-03-06T17:43:53.266Z,102140.97
2024-03-06T17:48:55.988Z,102153.16
2024-03-06T17:54:00.193Z,102116.69
2024-03-06T17:59:03.366Z,102154.16
2024-03-06T18:04:06.718Z,102167.38
2024-03-06T18:09:16.122Z,102166.72
2024-03-06T18:14:23.387Z,102160.88
2024-03-06T18:19:27.011Z,102168.13
2024-03-06T18:24:31.208Z,102176.88
2024-03-06T18:29:35.056Z,102183.63
2024-03-06T18:34:38.919Z,102152.94
2024-03-06T18:39:45.356Z,102173.06
2024-03-06T18:44:48.215Z,102195.38
2024-03-06T18:49:51.475Z,102204.13
2024-03-06T18:54:55.477Z,102154.75
2024-03-06T18:59:58.211Z,102181.94
2024-03-06T19:05:01.019Z,102209.72
2024-03-06T19:10:06.642Z,102213.69
2024-03-06T19:15:11.105Z,102203.06
2024-03-06T19:20:14.865Z,102221.22
2024-03-06T19:25:20.834Z,102223.31
2024-03-06T19:30:23.725Z,102225.31
2024-03-06T19:35:27.063Z,102203.78
2024-03-06T19:40:31.687Z,102166.81
2024-03-06T19:45:34.351Z,102235.94
2024-03-06T19:50:37.223Z,102236.13
2024-03-06T19:55:41.299Z,102225.50
2024-03-06T20:00:45.617Z,102198.91
2024-03-06T20:05:49.440Z,102193.94
2024-03-06T20:10:53.918Z,102241.53
2024-03-06T20:15:57.377Z,102242.13
2024-03-06T20:21:01.267Z,102239.72
2024-03-06T20:26:09.070Z,102231.94
2024-03-06T20:31:18.885Z,102201.16
2024-03-06T20:36:21.890Z,102210.09
2024-03-06T20:41:28.607Z,102223.53
2024-03-06T20:46:32.544Z,102222.06
2024-03-06T20:51:36.407Z,102217.03
2024-03-06T20:56:40.894Z,102244.19
2024-03-06T21:01:46.018Z,102239.28
2024-03-06T21:06:48.954Z,102227.97
2024-03-06T21:11:55.931Z,102233.38
2024-03-06T21:17:01.471Z,102230.47
2024-03-06T21:22:05.709Z,102206.72
2024-03-06T21:27:09.746Z,102239.25
2024-03-06T21:32:12.440Z,102235.50
2024-03-06T21:37:15.302Z,102245.47
2024-03-06T21:42:21.685Z,102170.59
2024-03-06T21:47:24.485Z,102230.63
2024-03-06T21:52:27.532Z,102229.47
2024-03-06T21:57:31.596Z,102221.63
2024-03-06T22:02:34.249Z,102237.53
2024-03-06T22:07:38.140Z,102237.31
2024-03-06T22:12:42.202Z,102208.19
2024-03-06T22:17:46.990Z,102245.34
2024-03-06T22:22:52.301Z,102226.72
2024-03-06T22:27:56.416Z,102242.28
2024-03-06T22:32:59.791Z,102245.97
2024-03-06T22:38:02.742Z,102245.50
2024-03-06T22:43:07.828Z,102249.41
2024-03-06T22:48:10.853Z,102235.59
2024-03-06T22:53:14.735Z,102258.81
2024-03-06T22:58:23.579Z,102146.94
2024-03-06T23:03:26.341Z,102260.88
2024-03-06T23:08:31.068Z,102252.03
2024-03-06T23:13:35.139Z,102238.78
2024-03-06T23:18:37.894Z,102196.50
2024-03-06T23:23:40.634Z,102249.06
2024-03-06T23:28:44.721Z,102196.28
2024-03-06T23:33:47.425Z,102256.00
2024-03-06T23:38:51.258Z,102247.84
2024-03-06T23:43:58.079Z,102162.66
2024-03-06T23:49:01.927Z,102261.75
2024-03-06T23:54:05.091Z,102259.13
2024-03-06T23:59:09.313Z,102249.00
